Terminal Aerodrome Forecast
Issued by NWS

Current Version | Previous Version | Graphics & Text | Print | Product List | Glossary On
Versions: 1 2 3 4 5 6 7 8 9 10 11 12 13 14 15 16 17 18 19 20 21 22 23 24 25 26 27 28 29 30 31 32 33 34 35 36 37 38 39 40 41 42 43 44
000
FTUS41 KRNK 261120
TAFLWB
TAF
KLWB 261120Z 2612/2712 00000KT P6SM SCT022 OVC045
     FM261600 23010G20KT P6SM OVC050
     FM262200 25008KT 6SM -SHRA OVC040
     FM270100 31010KT 4SM -SHRA OVC015
     FM270500 30008KT 3SM BR OVC008=

USA.gov is the U.S. government's official web portal to all federal, state and local government web resources and services.